Time;durP1;ratioP1;P1;durP2;ratioP2;P2;SDS_P1;SDS_P2;PMS_P1;PMS_P2;Temp;Humidity;BMP_temperature;BMP_pressure;BME280_temperature;BME280_humidity;BME280_pressure;Samples;Min_cycle;Max_cycle;Signal;HPM_P1;HPM_P2
2024/01/26 00:02:26;;;;;;;21.25;15.80;;;8.90;99.90;;;;;;7348776;32;20154;-58
2024/01/26 00:06:28;;;;;;;22.90;14.70;;;8.80;99.90;;;;;;7347649;32;20254;-58
2024/01/26 00:10:30;;;;;;;21.62;13.70;;;8.90;99.90;;;;;;7348792;32;20204;-57
2024/01/26 00:14:32;;;;;;;23.65;13.93;;;8.90;99.90;;;;;;7349712;32;20175;-58
2024/01/26 00:18:35;;;;;;;22.73;14.50;;;8.90;99.90;;;;;;7353154;32;20287;-58
2024/01/26 00:22:38;;;;;;;19.75;13.88;;;9.00;99.90;;;;;;7341060;32;20725;-58
2024/01/26 00:26:40;;;;;;;16.92;13.18;;;8.90;99.90;;;;;;7349630;32;20123;-57
2024/01/26 00:30:41;;;;;;;18.90;12.37;;;8.90;99.90;;;;;;7354027;32;20210;-57
2024/01/26 00:34:43;;;;;;;18.30;11.75;;;9.00;99.90;;;;;;7353292;32;20128;-58
2024/01/26 00:38:45;;;;;;;20.23;13.20;;;8.90;99.90;;;;;;7350249;32;20121;-58
2024/01/26 00:42:48;;;;;;;20.37;12.07;;;9.00;99.90;;;;;;7352259;32;20161;-59
2024/01/26 00:46:50;;;;;;;22.08;12.68;;;9.00;99.90;;;;;;7351642;32;20198;-58
2024/01/26 00:50:54;;;;;;;18.75;12.98;;;9.00;99.90;;;;;;7349367;32;20210;-58
2024/01/26 00:54:56;;;;;;;18.08;13.20;;;9.00;99.90;;;;;;7351221;32;20220;-57
2024/01/26 00:58:59;;;;;;;18.37;13.15;;;9.00;99.90;;;;;;7351813;32;20211;-57
2024/01/26 01:03:00;;;;;;;24.15;13.82;;;9.00;99.90;;;;;;7353960;32;20651;-58
2024/01/26 01:07:03;;;;;;;19.12;12.85;;;9.00;99.90;;;;;;7352776;32;20734;-58
2024/01/26 01:11:06;;;;;;;18.40;13.07;;;9.00;99.90;;;;;;7349683;32;20091;-58
2024/01/26 01:15:11;;;;;;;20.17;13.38;;;9.00;99.90;;;;;;7349016;32;20199;-58
2024/01/26 01:19:13;;;;;;;19.90;13.43;;;9.10;99.90;;;;;;7350228;32;20084;-58
2024/01/26 01:23:15;;;;;;;21.00;13.70;;;9.10;99.90;;;;;;7349765;32;20114;-58
2024/01/26 01:27:17;;;;;;;20.40;14.80;;;9.10;99.90;;;;;;7351346;32;20533;-59
2024/01/26 01:31:19;;;;;;;19.67;14.23;;;9.00;99.90;;;;;;7350041;32;20120;-58
2024/01/26 01:35:21;;;;;;;20.42;15.60;;;9.00;99.90;;;;;;7352057;32;20370;-58
2024/01/26 01:39:22;;;;;;;20.08;13.68;;;9.10;99.90;;;;;;7342226;32;20790;-58
2024/01/26 01:43:24;;;;;;;21.10;13.70;;;9.00;99.90;;;;;;7348269;32;20182;-58
2024/01/26 01:47:27;;;;;;;22.77;13.82;;;9.10;99.90;;;;;;7342685;32;20573;-58
2024/01/26 01:51:31;;;;;;;20.08;12.13;;;9.10;99.90;;;;;;7347397;32;20159;-57
2024/01/26 01:55:34;;;;;;;18.77;13.02;;;9.10;99.90;;;;;;7350262;32;20168;-57
2024/01/26 01:59:37;;;;;;;18.85;11.70;;;9.20;99.90;;;;;;7351677;32;20137;-57
2024/01/26 02:03:39;;;;;;;19.30;12.23;;;9.20;99.90;;;;;;7339271;32;20103;-58
2024/01/26 02:07:41;;;;;;;19.08;12.85;;;9.30;99.90;;;;;;7349219;32;20644;-58
2024/01/26 02:11:42;;;;;;;17.30;12.20;;;9.30;99.90;;;;;;7351264;32;20505;-57
2024/01/26 02:15:44;;;;;;;20.40;11.88;;;9.30;99.90;;;;;;7348105;32;20315;-57
2024/01/26 02:19:46;;;;;;;17.00;12.63;;;9.30;99.90;;;;;;7343578;32;20247;-58
2024/01/26 02:23:48;;;;;;;19.35;12.73;;;9.30;99.90;;;;;;7351616;32;20152;-57
2024/01/26 02:27:53;;;;;;;17.27;12.52;;;9.30;99.90;;;;;;7351403;32;20146;-57
2024/01/26 02:31:55;;;;;;;16.65;12.32;;;9.40;99.90;;;;;;7349718;32;20145;-57
2024/01/26 02:35:56;;;;;;;17.05;12.15;;;9.40;99.90;;;;;;7351065;32;20534;-58
2024/01/26 02:39:58;;;;;;;16.80;11.90;;;9.40;99.90;;;;;;7350177;32;20182;-56
2024/01/26 02:44:01;;;;;;;15.10;11.02;;;9.40;99.90;;;;;;7347840;32;20166;-57
2024/01/26 02:48:03;;;;;;;14.65;11.07;;;9.50;99.90;;;;;;7344961;32;20103;-57
2024/01/26 02:52:05;;;;;;;13.13;10.35;;;9.50;99.90;;;;;;7344486;32;20127;-57
2024/01/26 02:56:07;;;;;;;15.00;10.70;;;9.50;99.90;;;;;;7350504;32;20296;-57
2024/01/26 03:00:10;;;;;;;13.57;9.85;;;9.50;99.90;;;;;;7344907;32;20162;-57
2024/01/26 03:04:12;;;;;;;14.25;9.95;;;9.50;99.90;;;;;;7347286;32;20137;-57
2024/01/26 03:08:14;;;;;;;16.50;9.80;;;9.50;99.90;;;;;;7350302;32;20453;-57
2024/01/26 03:12:16;;;;;;;14.20;9.88;;;9.50;99.90;;;;;;7350098;32;20484;-57
2024/01/26 03:16:17;;;;;;;15.48;10.32;;;9.60;99.90;;;;;;7344619;32;20323;-58
2024/01/26 03:20:19;;;;;;;15.55;10.85;;;9.70;99.90;;;;;;7340406;32;20096;-57
2024/01/26 03:24:21;;;;;;;13.65;10.77;;;9.60;99.90;;;;;;7347848;32;20614;-57
2024/01/26 03:28:22;;;;;;;13.13;9.73;;;9.60;99.90;;;;;;7347524;32;20124;-57
2024/01/26 03:32:25;;;;;;;15.77;11.05;;;9.60;99.90;;;;;;7342074;32;20191;-57
2024/01/26 03:36:27;;;;;;;15.15;10.15;;;9.70;99.90;;;;;;7342401;32;20121;-57
2024/01/26 03:40:29;;;;;;;12.35;9.85;;;9.60;99.90;;;;;;7348291;32;20140;-57
2024/01/26 03:44:30;;;;;;;11.12;9.13;;;9.60;99.90;;;;;;7347395;32;20259;-57
2024/01/26 03:48:32;;;;;;;13.88;9.75;;;9.60;99.90;;;;;;7342551;32;20482;-56
2024/01/26 03:52:34;;;;;;;12.15;9.02;;;9.60;99.90;;;;;;7345780;32;20154;-57
2024/01/26 03:56:36;;;;;;;12.98;8.98;;;9.60;99.90;;;;;;7353060;32;20220;-58
2024/01/26 04:00:38;;;;;;;12.40;8.70;;;9.60;99.90;;;;;;7355037;32;20102;-57
2024/01/26 04:04:40;;;;;;;10.00;8.25;;;9.50;99.90;;;;;;7349379;32;20130;-57
2024/01/26 04:08:41;;;;;;;15.50;8.68;;;9.50;99.90;;;;;;7350297;32;20177;-57
2024/01/26 04:12:43;;;;;;;13.05;8.20;;;9.50;99.90;;;;;;7352350;32;20104;-57
2024/01/26 04:16:45;;;;;;;11.95;9.00;;;9.50;99.90;;;;;;7349885;32;20225;-57
2024/01/26 04:20:48;;;;;;;15.88;8.80;;;9.60;99.90;;;;;;7351541;32;20198;-58
2024/01/26 04:24:50;;;;;;;12.30;8.73;;;9.60;99.90;;;;;;7352810;32;20112;-58
2024/01/26 04:28:53;;;;;;;12.07;7.97;;;9.60;99.90;;;;;;7346689;32;20207;-57
2024/01/26 04:32:54;;;;;;;13.30;8.88;;;9.50;99.90;;;;;;7350320;32;20538;-57
2024/01/26 04:36:57;;;;;;;12.43;8.23;;;9.50;99.90;;;;;;7350709;32;20454;-58
2024/01/26 04:40:58;;;;;;;14.80;8.30;;;9.50;99.90;;;;;;7352363;32;20640;-58
2024/01/26 04:45:00;;;;;;;11.80;9.35;;;9.50;99.90;;;;;;7352252;32;20648;-57
2024/01/26 04:49:02;;;;;;;13.10;8.10;;;9.60;99.90;;;;;;7346245;32;20130;-58
2024/01/26 04:53:05;;;;;;;11.12;7.80;;;9.60;99.90;;;;;;7352185;32;20141;-57
2024/01/26 04:57:07;;;;;;;9.75;7.10;;;9.60;99.90;;;;;;7351781;32;20122;-58
2024/01/26 05:01:09;;;;;;;9.43;7.07;;;9.60;99.90;;;;;;7351207;32;20153;-58
2024/01/26 05:05:11;;;;;;;7.37;5.90;;;9.60;99.90;;;;;;7348774;32;20220;-57
2024/01/26 05:09:14;;;;;;;8.90;5.72;;;9.60;99.90;;;;;;7349462;32;20502;-57
2024/01/26 05:13:16;;;;;;;6.90;5.35;;;9.60;99.90;;;;;;7343216;32;20573;-57
2024/01/26 05:17:18;;;;;;;5.75;4.60;;;9.50;99.90;;;;;;7351270;32;20279;-57
2024/01/26 05:21:19;;;;;;;5.55;4.30;;;9.60;99.90;;;;;;7350941;32;20163;-57
2024/01/26 05:25:22;;;;;;;8.02;4.60;;;9.60;99.90;;;;;;7352498;32;20218;-57
2024/01/26 05:29:25;;;;;;;7.78;4.43;;;9.60;99.90;;;;;;7349521;32;20520;-58
2024/01/26 05:33:28;;;;;;;6.53;4.05;;;9.60;99.90;;;;;;7351078;32;20100;-56
2024/01/26 05:37:30;;;;;;;5.28;4.00;;;9.60;99.90;;;;;;7349046;32;20543;-57
2024/01/26 05:41:32;;;;;;;5.62;3.80;;;9.60;99.90;;;;;;7346377;32;20152;-57
2024/01/26 05:45:34;;;;;;;5.65;3.80;;;9.70;99.90;;;;;;7349384;32;20732;-55
2024/01/26 05:49:35;;;;;;;5.78;3.30;;;9.70;99.90;;;;;;7341804;32;20135;-58
2024/01/26 05:53:37;;;;;;;5.97;3.00;;;9.60;99.90;;;;;;7344004;32;20136;-59
2024/01/26 05:57:39;;;;;;;5.10;3.90;;;9.60;99.90;;;;;;7348822;32;20103;-57
2024/01/26 06:01:41;;;;;;;7.05;3.78;;;9.60;99.90;;;;;;7348654;32;20246;-58
2024/01/26 06:05:42;;;;;;;4.25;3.28;;;9.60;99.90;;;;;;7349665;32;20198;-57
2024/01/26 06:09:44;;;;;;;5.12;3.75;;;9.50;99.90;;;;;;7337629;32;20099;-57
2024/01/26 06:13:46;;;;;;;6.32;3.90;;;9.50;99.90;;;;;;7342827;32;20186;-57
2024/01/26 06:17:49;;;;;;;6.03;2.92;;;9.60;99.90;;;;;;7346884;32;20113;-57
2024/01/26 06:21:51;;;;;;;5.57;3.20;;;9.60;99.90;;;;;;7346751;32;20316;-58
2024/01/26 06:25:54;;;;;;;4.07;2.90;;;9.60;99.90;;;;;;7346625;32;20132;-58
2024/01/26 06:29:56;;;;;;;5.12;3.12;;;9.50;99.90;;;;;;7344101;32;20112;-58
2024/01/26 06:33:58;;;;;;;5.55;3.00;;;9.60;99.90;;;;;;7348208;32;20237;-57
2024/01/26 06:38:00;;;;;;;4.87;3.45;;;9.50;99.90;;;;;;7338017;32;20475;-57
2024/01/26 06:42:01;;;;;;;3.95;3.08;;;9.50;99.90;;;;;;7331586;32;20214;-58
2024/01/26 06:46:03;;;;;;;22.17;14.20;;;9.50;99.90;;;;;;7340643;32;20215;-56
2024/01/26 06:50:06;;;;;;;6.18;4.10;;;9.60;99.90;;;;;;7340710;32;20142;-56
2024/01/26 06:54:10;;;;;;;6.85;3.03;;;9.50;99.90;;;;;;7344083;32;20123;-56
2024/01/26 06:58:13;;;;;;;5.47;3.50;;;9.60;99.90;;;;;;7345495;32;20214;-56
2024/01/26 07:02:14;;;;;;;5.57;3.53;;;9.50;99.90;;;;;;7345097;32;20184;-56
2024/01/26 07:06:16;;;;;;;8.07;3.62;;;9.60;99.90;;;;;;7348477;32;20111;-56
2024/01/26 07:10:18;;;;;;;4.93;3.00;;;9.60;99.90;;;;;;7340529;32;20114;-57
2024/01/26 07:14:20;;;;;;;6.22;3.72;;;9.50;99.90;;;;;;7335675;32;20246;-56
2024/01/26 07:18:21;;;;;;;5.85;3.42;;;9.50;99.90;;;;;;7346594;32;20142;-57
2024/01/26 07:22:24;;;;;;;6.30;3.72;;;9.40;99.90;;;;;;7337063;32;20633;-58
2024/01/26 07:26:25;;;;;;;4.68;2.80;;;9.40;99.90;;;;;;7341171;32;20134;-58
2024/01/26 07:30:27;;;;;;;5.30;3.17;;;9.40;99.90;;;;;;7342569;32;20111;-58
2024/01/26 07:34:29;;;;;;;6.87;3.58;;;9.40;99.90;;;;;;7328580;32;20203;-58
2024/01/26 07:38:33;;;;;;;7.70;3.28;;;9.30;99.90;;;;;;7349224;32;20166;-57
2024/01/26 07:42:34;;;;;;;6.03;3.22;;;9.40;99.90;;;;;;7340292;32;20118;-58
2024/01/26 07:46:41;;;;;;;6.85;3.55;;;9.30;99.90;;;;;;7341372;32;20103;-57
2024/01/26 07:50:43;;;;;;;7.20;3.15;;;9.40;99.90;;;;;;7339876;32;20126;-57
2024/01/26 07:54:44;;;;;;;7.32;3.58;;;9.30;99.90;;;;;;7345573;32;20278;-58
2024/01/26 07:58:46;;;;;;;7.28;3.42;;;9.30;99.90;;;;;;7343076;32;20137;-58
2024/01/26 08:02:48;;;;;;;5.47;3.62;;;9.30;99.90;;;;;;7334319;32;20274;-58
2024/01/26 08:06:50;;;;;;;5.18;3.75;;;9.30;99.90;;;;;;7344399;32;20133;-58
2024/01/26 08:10:57;;;;;;;5.43;4.00;;;9.30;99.90;;;;;;7344583;32;20502;-58
2024/01/26 08:14:58;;;;;;;5.40;3.90;;;9.30;99.90;;;;;;7345002;32;20342;-58
2024/01/26 08:19:00;;;;;;;6.68;4.25;;;9.30;99.90;;;;;;7343902;32;20124;-57
2024/01/26 08:23:03;;;;;;;5.70;4.68;;;9.30;99.90;;;;;;7348078;32;20229;-57
2024/01/26 08:27:05;;;;;;;7.68;4.80;;;9.30;99.90;;;;;;7347934;32;20096;-58
2024/01/26 08:31:08;;;;;;;7.80;5.20;;;9.30;99.90;;;;;;7346349;32;20162;-58
2024/01/26 08:35:09;;;;;;;6.60;4.43;;;9.40;99.90;;;;;;7343220;32;20218;-58
2024/01/26 08:39:13;;;;;;;8.18;5.07;;;9.40;99.90;;;;;;7338828;32;20261;-59
2024/01/26 08:43:15;;;;;;;6.87;4.47;;;9.50;99.90;;;;;;7342467;32;20571;-58
2024/01/26 08:47:16;;;;;;;7.50;4.78;;;9.50;99.90;;;;;;7337107;32;20194;-57
2024/01/26 08:51:18;;;;;;;8.02;4.12;;;9.60;99.90;;;;;;7345598;32;20567;-57
2024/01/26 08:55:20;;;;;;;8.88;4.12;;;9.70;99.90;;;;;;7345525;32;20343;-58
2024/01/26 08:59:22;;;;;;;8.40;3.83;;;9.80;99.90;;;;;;7348919;32;20216;-58
2024/01/26 09:03:24;;;;;;;7.47;3.75;;;9.90;99.90;;;;;;7346043;32;20139;-58
2024/01/26 09:07:25;;;;;;;5.22;3.72;;;10.00;99.90;;;;;;7346119;32;20168;-58
2024/01/26 09:11:27;;;;;;;5.62;3.60;;;10.10;99.90;;;;;;7341060;32;20134;-62
2024/01/26 09:15:29;;;;;;;7.70;4.00;;;10.20;99.90;;;;;;7348874;32;20111;-58
2024/01/26 09:19:31;;;;;;;9.00;4.18;;;10.30;99.90;;;;;;7344266;32;20498;-58
2024/01/26 09:23:33;;;;;;;5.28;3.75;;;10.30;99.90;;;;;;7350168;32;20189;-58
2024/01/26 09:27:35;;;;;;;3.85;3.40;;;10.40;99.90;;;;;;7347729;32;20449;-58
2024/01/26 09:31:37;;;;;;;5.62;3.90;;;10.50;99.90;;;;;;7338317;32;20163;-58
2024/01/26 09:35:39;;;;;;;4.72;3.42;;;10.40;99.90;;;;;;7344880;32;20312;-57
2024/01/26 09:39:41;;;;;;;5.50;4.07;;;10.50;99.90;;;;;;7340331;32;20392;-58
2024/01/26 09:43:43;;;;;;;5.80;3.75;;;10.50;99.90;;;;;;7346744;32;20119;-58
2024/01/26 09:47:49;;;;;;;7.47;3.83;;;10.60;99.90;;;;;;7341959;32;20115;-58
2024/01/26 09:51:51;;;;;;;4.82;3.60;;;10.60;99.90;;;;;;7344142;32;20481;-57
2024/01/26 09:55:54;;;;;;;6.45;4.03;;;10.70;99.90;;;;;;7337865;32;20198;-58
2024/01/26 09:59:56;;;;;;;5.12;3.55;;;10.80;99.90;;;;;;7345666;32;20152;-57
2024/01/26 10:03:58;;;;;;;7.50;4.10;;;10.80;99.90;;;;;;7339679;32;20149;-58
2024/01/26 10:08:00;;;;;;;5.35;3.55;;;10.80;99.90;;;;;;7344305;32;20510;-58
2024/01/26 10:12:02;;;;;;;6.80;4.18;;;10.80;99.90;;;;;;7347414;32;20160;-57
2024/01/26 10:16:10;;;;;;;6.70;3.65;;;10.80;99.90;;;;;;7342647;32;20118;-58
2024/01/26 10:20:15;;;;;;;4.32;3.50;;;10.90;99.90;;;;;;7342179;32;20156;-59
2024/01/26 10:24:21;;;;;;;5.85;3.55;;;10.80;99.90;;;;;;7338824;32;20103;-59
2024/01/26 10:28:23;;;;;;;4.23;3.10;;;10.80;99.90;;;;;;7336945;32;20253;-58
2024/01/26 10:32:28;;;;;;;4.40;3.33;;;10.80;99.90;;;;;;7338016;32;20230;-58
2024/01/26 10:36:33;;;;;;;5.35;3.40;;;10.80;99.90;;;;;;7344106;32;20135;-58
2024/01/26 10:40:36;;;;;;;4.28;3.15;;;10.80;99.90;;;;;;7344683;32;20102;-57
2024/01/26 10:44:38;;;;;;;4.55;3.30;;;10.80;99.90;;;;;;7341439;32;20121;-58
2024/01/26 10:48:42;;;;;;;4.65;3.25;;;10.70;99.90;;;;;;7340445;32;20168;-58
2024/01/26 10:52:48;;;;;;;3.62;2.10;;;10.80;99.90;;;;;;7335085;32;20092;-58
2024/01/26 10:56:50;;;;;;;5.05;1.73;;;10.60;99.90;;;;;;7336029;32;20221;-56
2024/01/26 11:00:54;;;;;;;5.07;1.60;;;10.40;99.90;;;;;;7337634;32;20112;-57
2024/01/26 11:04:58;;;;;;;5.70;1.45;;;10.40;99.90;;;;;;7343480;32;20099;-57
2024/01/26 11:09:05;;;;;;;6.28;1.60;;;10.30;99.90;;;;;;7348677;32;20100;-58
2024/01/26 11:13:15;;;;;;;3.60;1.23;;;10.20;99.90;;;;;;7342320;32;20134;-57
2024/01/26 11:17:19;;;;;;;5.70;1.10;;;9.80;99.90;;;;;;7346320;32;20121;-58
2024/01/26 11:21:21;;;;;;;4.37;0.80;;;9.40;99.90;;;;;;7332502;32;20138;-58
2024/01/26 11:25:23;;;;;;;4.20;0.70;;;9.20;99.90;;;;;;7335660;32;20258;-58
2024/01/26 11:29:34;;;;;;;3.15;1.30;;;9.10;99.90;;;;;;7345100;32;20121;-58
2024/01/26 11:33:39;;;;;;;2.33;0.77;;;9.10;99.90;;;;;;7342726;32;20157;-58
2024/01/26 11:37:42;;;;;;;3.15;0.60;;;9.10;99.90;;;;;;7343316;32;20099;-58
2024/01/26 11:41:45;;;;;;;4.07;0.80;;;9.20;99.90;;;;;;7341677;32;20642;-57
2024/01/26 11:45:47;;;;;;;3.00;0.65;;;9.20;99.90;;;;;;7347376;32;20279;-57
2024/01/26 11:49:49;;;;;;;6.37;1.70;;;9.20;99.90;;;;;;7348978;32;20438;-57
2024/01/26 11:53:51;;;;;;;7.05;0.93;;;9.30;99.90;;;;;;7345993;32;20129;-58
2024/01/26 11:57:54;;;;;;;6.90;0.98;;;9.30;99.90;;;;;;7341266;32;20118;-57
2024/01/26 12:01:56;;;;;;;6.07;0.68;;;9.30;99.90;;;;;;7343002;32;20096;-58
2024/01/26 12:05:58;;;;;;;3.85;0.90;;;9.30;99.90;;;;;;7337795;32;20121;-58
2024/01/26 12:10:01;;;;;;;4.62;0.73;;;9.30;99.90;;;;;;7335519;32;20226;-57
2024/01/26 12:14:04;;;;;;;1.80;0.50;;;9.20;99.90;;;;;;7339201;32;20529;-57
2024/01/26 12:18:10;;;;;;;8.20;0.60;;;9.10;99.90;;;;;;7343612;32;20152;-58
2024/01/26 12:22:14;;;;;;;5.85;0.73;;;8.90;99.90;;;;;;7344117;32;20198;-57
2024/01/26 12:26:16;;;;;;;6.75;0.77;;;8.70;99.90;;;;;;7320346;32;20420;-57
2024/01/26 12:30:18;;;;;;;4.00;0.73;;;8.50;99.90;;;;;;7342347;32;20839;-57
2024/01/26 12:34:20;;;;;;;6.65;0.57;;;8.40;99.90;;;;;;7342377;32;20162;-57
2024/01/26 12:38:22;;;;;;;6.28;0.68;;;8.40;99.90;;;;;;7346144;32;20198;-63
2024/01/26 12:42:24;;;;;;;4.75;0.80;;;8.70;99.90;;;;;;7340123;32;20266;-63
2024/01/26 12:46:26;;;;;;;6.20;1.10;;;8.90;99.90;;;;;;7337348;32;20111;-57
2024/01/26 12:50:27;;;;;;;6.90;0.90;;;9.20;99.90;;;;;;7343551;32;20291;-58
2024/01/26 12:54:29;;;;;;;7.45;1.15;;;9.40;99.90;;;;;;7338902;32;20237;-60
2024/01/26 12:58:31;;;;;;;6.37;1.15;;;9.20;99.90;;;;;;7330403;32;21117;-58
2024/01/26 13:02:35;;;;;;;7.12;0.98;;;9.00;99.90;;;;;;7339544;32;20138;-57
2024/01/26 13:06:37;;;;;;;6.22;1.00;;;9.10;99.90;;;;;;7344036;32;20126;-57
2024/01/26 13:10:39;;;;;;;7.37;1.17;;;9.00;99.90;;;;;;7342342;32;20454;-56
2024/01/26 13:14:41;;;;;;;9.45;1.62;;;8.80;99.90;;;;;;7344710;32;20678;-57
2024/01/26 13:18:45;;;;;;;8.10;1.17;;;8.60;99.90;;;;;;7341432;32;20497;-56
2024/01/26 13:22:48;;;;;;;5.68;0.90;;;8.60;99.90;;;;;;7341277;32;20137;-57
2024/01/26 13:26:50;;;;;;;7.15;1.40;;;8.50;99.90;;;;;;7342313;32;20132;-55
2024/01/26 13:30:55;;;;;;;5.78;0.73;;;8.40;99.90;;;;;;7338660;32;20112;-57
2024/01/26 13:34:57;;;;;;;10.75;1.23;;;8.20;99.90;;;;;;7340096;32;20527;-58
2024/01/26 13:38:58;;;;;;;7.25;1.35;;;8.00;99.90;;;;;;7341381;32;21219;-58
2024/01/26 13:43:01;;;;;;;6.57;1.00;;;8.00;99.90;;;;;;7338650;32;20114;-58
2024/01/26 13:47:03;;;;;;;4.60;0.68;;;8.10;99.90;;;;;;7344844;32;21454;-63
2024/01/26 13:51:05;;;;;;;7.65;1.37;;;8.40;99.90;;;;;;7342824;32;20197;-58
2024/01/26 13:55:07;;;;;;;7.07;1.20;;;8.50;99.90;;;;;;7340468;32;20107;-58
2024/01/26 13:59:09;;;;;;;8.80;1.40;;;8.50;99.90;;;;;;7339144;32;20127;-58
2024/01/26 14:03:11;;;;;;;6.50;1.10;;;8.60;99.90;;;;;;7341143;32;20438;-58
2024/01/26 14:07:14;;;;;;;11.68;1.15;;;8.60;99.90;;;;;;7343401;32;20563;-58
2024/01/26 14:11:15;;;;;;;6.55;1.55;;;8.60;99.90;;;;;;7340701;32;20229;-58
2024/01/26 14:15:18;;;;;;;9.02;1.52;;;8.50;99.90;;;;;;7342401;32;20126;-58
2024/01/26 14:19:21;;;;;;;7.50;1.33;;;8.40;99.90;;;;;;7340576;32;20233;-57
2024/01/26 14:23:24;;;;;;;6.20;1.23;;;8.50;99.90;;;;;;7337236;32;20160;-58
2024/01/26 14:27:25;;;;;;;11.50;1.40;;;8.40;99.90;;;;;;7342151;32;20175;-57
2024/01/26 14:31:27;;;;;;;11.98;1.20;;;8.50;99.90;;;;;;7342122;32;20131;-58
2024/01/26 14:35:30;;;;;;;6.90;1.75;;;8.30;99.90;;;;;;7333498;32;20103;-57
2024/01/26 14:39:32;;;;;;;9.95;1.37;;;8.40;99.90;;;;;;7340007;32;20126;-57
2024/01/26 14:43:34;;;;;;;7.30;1.00;;;8.40;99.90;;;;;;7339184;32;20275;-58
2024/01/26 14:47:38;;;;;;;8.43;1.12;;;8.40;99.90;;;;;;7339847;32;20104;-58
2024/01/26 14:51:42;;;;;;;9.43;1.50;;;8.30;99.90;;;;;;7338178;32;20156;-57
2024/01/26 14:55:44;;;;;;;9.88;1.17;;;8.20;99.90;;;;;;7341085;32;20559;-58
2024/01/26 14:59:46;;;;;;;10.07;1.20;;;8.20;99.90;;;;;;7343120;32;20160;-57
2024/01/26 15:03:48;;;;;;;6.50;1.30;;;8.10;99.90;;;;;;7342834;32;20220;-56
2024/01/26 15:07:50;;;;;;;7.18;1.37;;;8.10;99.90;;;;;;7337379;32;20107;-58
2024/01/26 15:11:57;;;;;;;12.02;1.58;;;8.20;99.90;;;;;;7337525;32;20123;-57
2024/01/26 15:15:59;;;;;;;8.68;1.50;;;8.20;99.90;;;;;;7324694;32;20655;-57
2024/01/26 15:20:05;;;;;;;9.50;1.62;;;8.10;99.90;;;;;;7342703;32;20521;-57
2024/01/26 15:24:08;;;;;;;8.60;1.20;;;8.00;99.90;;;;;;7344117;32;20469;-58
2024/01/26 15:28:10;;;;;;;12.73;2.08;;;8.00;99.90;;;;;;7336096;32;20143;-58
2024/01/26 15:32:11;;;;;;;10.95;1.73;;;8.00;99.90;;;;;;7315921;32;20676;-56
2024/01/26 15:36:15;;;;;;;6.45;0.88;;;7.90;99.90;;;;;;7345295;32;20136;-58
2024/01/26 15:40:19;;;;;;;10.73;1.40;;;7.80;99.90;;;;;;7327374;32;20130;-57
2024/01/26 15:44:21;;;;;;;9.70;2.28;;;7.70;99.90;;;;;;7341217;32;20593;-57
2024/01/26 15:48:22;;;;;;;14.73;2.25;;;7.70;99.90;;;;;;7341895;32;20232;-58
2024/01/26 15:52:28;;;;;;;11.25;1.83;;;7.70;99.90;;;;;;7329332;32;20203;-57
2024/01/26 15:56:39;;;;;;;9.32;1.98;;;7.60;99.90;;;;;;7346604;32;20696;-56
2024/01/26 16:00:41;;;;;;;12.05;2.10;;;7.60;99.90;;;;;;7342839;32;20112;-57
2024/01/26 16:04:43;;;;;;;13.32;1.60;;;7.60;99.90;;;;;;7347786;32;20202;-57
2024/01/26 16:08:45;;;;;;;6.10;1.98;;;7.50;99.90;;;;;;7347631;32;20293;-56
2024/01/26 16:12:47;;;;;;;13.32;2.15;;;7.50;99.90;;;;;;7347296;32;20133;-58
2024/01/26 16:16:48;;;;;;;10.35;2.08;;;7.50;99.90;;;;;;7347350;32;20176;-58
2024/01/26 16:20:50;;;;;;;12.80;1.45;;;7.50;99.90;;;;;;7346958;32;20876;-57
2024/01/26 16:24:52;;;;;;;13.05;1.50;;;7.50;99.90;;;;;;7341345;32;20245;-56
2024/01/26 16:28:54;;;;;;;10.10;1.58;;;7.50;99.90;;;;;;7346765;32;20348;-56
2024/01/26 16:32:56;;;;;;;10.25;1.85;;;7.50;99.90;;;;;;7347371;32;20180;-56
2024/01/26 16:36:58;;;;;;;10.32;1.70;;;7.40;99.90;;;;;;7346390;32;20122;-57
2024/01/26 16:40:59;;;;;;;12.13;1.33;;;7.40;99.90;;;;;;7338969;32;20180;-55
2024/01/26 16:45:01;;;;;;;6.85;1.30;;;7.30;99.90;;;;;;7344095;32;20155;-55
2024/01/26 16:49:03;;;;;;;12.05;1.40;;;7.30;99.90;;;;;;7343680;32;20133;-56
2024/01/26 16:53:05;;;;;;;11.40;1.50;;;7.20;99.90;;;;;;7342546;32;20674;-56
2024/01/26 16:57:08;;;;;;;9.55;0.98;;;7.20;99.90;;;;;;7350005;32;20100;-56
2024/01/26 17:01:14;;;;;;;11.32;1.40;;;7.10;99.90;;;;;;7346183;32;20510;-56
2024/01/26 17:05:16;;;;;;;7.87;1.12;;;7.10;99.90;;;;;;7343698;32;20190;-56
2024/01/26 17:09:18;;;;;;;9.40;1.85;;;7.00;99.90;;;;;;7340566;32;20126;-56
2024/01/26 17:13:20;;;;;;;9.70;1.62;;;6.90;99.90;;;;;;7326908;32;20120;-56
2024/01/26 17:17:22;;;;;;;8.85;1.42;;;6.90;99.90;;;;;;7344162;32;21671;-56
2024/01/26 17:21:24;;;;;;;8.68;1.27;;;6.80;99.90;;;;;;7341653;32;22125;-56
2024/01/26 17:25:26;;;;;;;9.82;1.30;;;6.80;99.90;;;;;;7347765;32;20103;-57
2024/01/26 17:29:28;;;;;;;13.57;2.03;;;6.70;99.90;;;;;;7343132;32;20557;-56
2024/01/26 17:33:30;;;;;;;16.98;1.77;;;6.80;99.90;;;;;;7341560;32;20107;-56
2024/01/26 17:37:32;;;;;;;9.48;1.37;;;6.80;99.90;;;;;;7345809;32;20143;-56
2024/01/26 17:41:34;;;;;;;15.88;2.00;;;6.80;99.90;;;;;;7342608;32;20130;-56
2024/01/26 17:45:36;;;;;;;9.65;1.40;;;6.80;99.90;;;;;;7344303;32;20585;-56
2024/01/26 17:49:37;;;;;;;12.50;1.50;;;6.80;99.90;;;;;;7347810;32;20209;-56
2024/01/26 17:53:39;;;;;;;12.75;1.60;;;6.80;99.90;;;;;;7345072;32;20407;-56
2024/01/26 17:57:41;;;;;;;8.10;1.75;;;6.80;99.90;;;;;;7342504;32;20112;-56
2024/01/26 18:01:44;;;;;;;12.37;1.60;;;6.70;99.90;;;;;;7344642;32;20103;-56
2024/01/26 18:05:45;;;;;;;11.90;1.62;;;6.70;99.90;;;;;;7327859;32;20240;-58
2024/01/26 18:09:47;;;;;;;9.65;1.60;;;6.80;99.90;;;;;;7342086;32;20131;-55
2024/01/26 18:13:49;;;;;;;10.40;1.30;;;6.80;99.90;;;;;;7342489;32;20107;-57
2024/01/26 18:17:51;;;;;;;16.25;2.37;;;6.80;99.90;;;;;;7337809;32;21156;-57
2024/01/26 18:21:53;;;;;;;15.10;2.00;;;6.80;99.90;;;;;;7342563;32;20225;-59
2024/01/26 18:25:55;;;;;;;8.95;2.15;;;6.80;99.90;;;;;;7339104;32;20294;-58
2024/01/26 18:29:57;;;;;;;15.98;2.17;;;6.70;99.90;;;;;;7340344;32;20235;-59
2024/01/26 18:33:59;;;;;;;9.20;1.90;;;6.70;99.90;;;;;;7340107;32;20150;-58
2024/01/26 18:38:01;;;;;;;11.10;1.80;;;6.70;99.90;;;;;;7337442;32;20238;-58
2024/01/26 18:42:03;;;;;;;12.35;2.37;;;6.80;99.90;;;;;;7337342;32;20237;-58
2024/01/26 18:46:05;;;;;;;12.18;2.35;;;6.70;99.90;;;;;;7341984;32;20111;-60
2024/01/26 18:50:08;;;;;;;17.30;2.90;;;6.70;99.90;;;;;;7343155;32;20111;-59
2024/01/26 18:54:10;;;;;;;13.48;2.05;;;6.60;99.90;;;;;;7335640;32;20198;-59
2024/01/26 18:58:12;;;;;;;14.25;1.92;;;6.70;99.90;;;;;;7344522;32;20690;-59
2024/01/26 19:02:14;;;;;;;19.77;2.15;;;6.60;99.90;;;;;;7338460;32;20138;-59
2024/01/26 19:06:16;;;;;;;15.65;1.33;;;6.70;99.90;;;;;;7335480;32;20280;-60
2024/01/26 19:10:18;;;;;;;12.25;1.98;;;6.60;99.90;;;;;;7338731;32;20111;-59
2024/01/26 19:14:20;;;;;;;10.32;1.65;;;6.50;99.90;;;;;;7337358;32;20115;-58
2024/01/26 19:18:24;;;;;;;12.88;1.73;;;6.40;99.90;;;;;;7345596;32;20130;-57
2024/01/26 19:22:26;;;;;;;15.73;2.00;;;6.30;99.90;;;;;;7342422;32;20202;-55
2024/01/26 19:26:28;;;;;;;13.20;2.25;;;6.20;99.90;;;;;;7347375;32;20144;-58
2024/01/26 19:30:31;;;;;;;13.82;2.12;;;6.00;99.90;;;;;;7350469;32;20176;-56
2024/01/26 19:34:33;;;;;;;14.25;2.45;;;5.90;99.90;;;;;;7344026;32;20184;-58
2024/01/26 19:38:36;;;;;;;9.13;2.33;;;5.70;99.90;;;;;;7349799;32;20280;-57
2024/01/26 19:42:37;;;;;;;15.70;2.28;;;5.70;99.90;;;;;;7346352;32;20290;-58
2024/01/26 19:46:39;;;;;;;11.80;2.25;;;5.60;99.90;;;;;;7346398;32;20131;-56
2024/01/26 19:50:41;;;;;;;13.10;2.25;;;5.40;99.90;;;;;;7345527;32;20263;-57
2024/01/26 19:54:42;;;;;;;14.75;2.60;;;5.30;99.90;;;;;;7345087;32;20108;-56
2024/01/26 19:58:46;;;;;;;11.63;2.20;;;5.10;99.90;;;;;;7341325;32;20126;-56
2024/01/26 20:02:48;;;;;;;20.90;2.65;;;5.10;99.90;;;;;;7340884;32;20773;-57
2024/01/26 20:06:50;;;;;;;16.30;2.50;;;4.90;99.90;;;;;;7347190;32;20137;-57
2024/01/26 20:10:55;;;;;;;9.05;2.35;;;4.70;99.90;;;;;;7347213;32;20130;-57
2024/01/26 20:14:57;;;;;;;13.80;3.58;;;4.50;99.90;;;;;;7341966;32;20728;-56
2024/01/26 20:19:07;;;;;;;11.25;2.92;;;4.40;99.90;;;;;;7346893;32;20307;-57
2024/01/26 20:23:09;;;;;;;11.75;3.28;;;4.30;99.90;;;;;;7342409;32;20543;-58
2024/01/26 20:27:11;;;;;;;19.42;4.50;;;4.20;99.90;;;;;;7348818;32;20138;-57
2024/01/26 20:31:13;;;;;;;17.75;3.95;;;4.00;99.90;;;;;;7341778;32;20131;-57
2024/01/26 20:35:17;;;;;;;18.90;3.12;;;4.00;99.90;;;;;;7345907;32;20192;-57
2024/01/26 20:39:18;;;;;;;15.90;3.35;;;3.90;99.90;;;;;;7349597;32;20111;-57
2024/01/26 20:43:20;;;;;;;13.73;3.35;;;3.90;99.90;;;;;;7340276;32;20309;-55
2024/01/26 20:47:24;;;;;;;15.63;2.80;;;3.70;99.90;;;;;;7347805;32;20598;-56
2024/01/26 20:51:25;;;;;;;14.43;2.90;;;3.70;99.90;;;;;;7344812;32;20127;-55
2024/01/26 20:55:27;;;;;;;14.98;3.47;;;3.60;99.90;;;;;;7343833;32;20199;-57
2024/01/26 20:59:29;;;;;;;11.12;3.15;;;3.40;99.90;;;;;;7340390;32;20258;-57
2024/01/26 21:03:31;;;;;;;13.93;3.53;;;3.30;99.90;;;;;;7349638;32;20110;-57
2024/01/26 21:07:33;;;;;;;18.27;3.70;;;3.20;99.90;;;;;;7346691;32;20213;-58